sensor_id;sensor_type;location;lat;lon;timestamp;P1;durP1;ratioP1;P2;durP2;ratioP2
38117;SDS011;23928;47.562;7.508;2023-06-22T00:00:50;8.90;;;6.60;;
38117;SDS011;23928;47.562;7.508;2023-06-22T00:03:17;10.03;;;6.93;;
38117;SDS011;23928;47.562;7.508;2023-06-22T00:05:43;10.67;;;6.20;;
38117;SDS011;23928;47.562;7.508;2023-06-22T00:08:09;12.73;;;5.50;;
38117;SDS011;23928;47.562;7.508;2023-06-22T00:10:35;12.20;;;6.10;;
38117;SDS011;23928;47.562;7.508;2023-06-22T00:13:00;7.53;;;5.63;;
38117;SDS011;23928;47.562;7.508;2023-06-22T00:15:26;9.20;;;5.90;;
38117;SDS011;23928;47.562;7.508;2023-06-22T00:17:52;14.13;;;6.53;;
38117;SDS011;23928;47.562;7.508;2023-06-22T00:20:18;10.43;;;7.10;;
38117;SDS011;23928;47.562;7.508;2023-06-22T00:22:44;8.50;;;6.27;;
38117;SDS011;23928;47.562;7.508;2023-06-22T00:25:10;9.50;;;6.37;;
38117;SDS011;23928;47.562;7.508;2023-06-22T00:27:36;9.77;;;6.97;;
38117;SDS011;23928;47.562;7.508;2023-06-22T00:30:02;10.70;;;6.80;;
38117;SDS011;23928;47.562;7.508;2023-06-22T00:32:28;11.03;;;7.73;;
38117;SDS011;23928;47.562;7.508;2023-06-22T00:34:53;11.13;;;7.27;;
38117;SDS011;23928;47.562;7.508;2023-06-22T00:37:19;12.33;;;7.37;;
38117;SDS011;23928;47.562;7.508;2023-06-22T00:39:51;11.60;;;7.67;;
38117;SDS011;23928;47.562;7.508;2023-06-22T00:42:16;10.67;;;7.23;;
38117;SDS011;23928;47.562;7.508;2023-06-22T00:44:42;12.30;;;8.00;;
38117;SDS011;23928;47.562;7.508;2023-06-22T00:47:10;14.77;;;7.80;;
38117;SDS011;23928;47.562;7.508;2023-06-22T00:49:38;13.40;;;8.73;;
38117;SDS011;23928;47.562;7.508;2023-06-22T00:52:04;13.00;;;8.60;;
38117;SDS011;23928;47.562;7.508;2023-06-22T00:54:34;12.80;;;8.47;;
38117;SDS011;23928;47.562;7.508;2023-06-22T00:57:03;15.23;;;8.93;;
38117;SDS011;23928;47.562;7.508;2023-06-22T00:59:29;11.97;;;9.10;;
38117;SDS011;23928;47.562;7.508;2023-06-22T01:01:57;19.77;;;9.63;;
38117;SDS011;23928;47.562;7.508;2023-06-22T01:04:24;10.27;;;8.60;;
38117;SDS011;23928;47.562;7.508;2023-06-22T01:07:03;10.87;;;8.77;;
38117;SDS011;23928;47.562;7.508;2023-06-22T01:09:51;17.67;;;9.57;;
38117;SDS011;23928;47.562;7.508;2023-06-22T01:12:21;15.37;;;9.87;;
38117;SDS011;23928;47.562;7.508;2023-06-22T01:14:50;12.03;;;10.70;;
38117;SDS011;23928;47.562;7.508;2023-06-22T01:17:29;13.37;;;9.40;;
38117;SDS011;23928;47.562;7.508;2023-06-22T01:19:57;12.03;;;9.40;;
38117;SDS011;23928;47.562;7.508;2023-06-22T01:22:26;15.50;;;11.23;;
38117;SDS011;23928;47.562;7.508;2023-06-22T01:30:40;15.07;;;10.57;;
38117;SDS011;23928;47.562;7.508;2023-06-22T01:33:09;18.47;;;11.83;;
38117;SDS011;23928;47.562;7.508;2023-06-22T01:35:36;12.03;;;10.43;;
38117;SDS011;23928;47.562;7.508;2023-06-22T01:38:03;18.17;;;12.83;;
38117;SDS011;23928;47.562;7.508;2023-06-22T01:40:29;18.37;;;13.27;;
38117;SDS011;23928;47.562;7.508;2023-06-22T01:42:56;18.83;;;13.57;;
38117;SDS011;23928;47.562;7.508;2023-06-22T01:45:22;18.60;;;13.03;;
38117;SDS011;23928;47.562;7.508;2023-06-22T01:47:49;20.37;;;14.80;;
38117;SDS011;23928;47.562;7.508;2023-06-22T01:50:15;18.27;;;13.87;;
38117;SDS011;23928;47.562;7.508;2023-06-22T01:52:40;14.93;;;11.07;;
38117;SDS011;23928;47.562;7.508;2023-06-22T01:55:06;15.00;;;12.17;;
38117;SDS011;23928;47.562;7.508;2023-06-22T01:57:33;17.37;;;12.20;;
38117;SDS011;23928;47.562;7.508;2023-06-22T02:00:09;17.97;;;11.10;;
38117;SDS011;23928;47.562;7.508;2023-06-22T02:02:43;17.20;;;12.80;;
38117;SDS011;23928;47.562;7.508;2023-06-22T02:05:21;16.50;;;11.53;;
38117;SDS011;23928;47.562;7.508;2023-06-22T02:10:41;15.10;;;12.23;;
38117;SDS011;23928;47.562;7.508;2023-06-22T02:13:09;19.80;;;12.80;;
38117;SDS011;23928;47.562;7.508;2023-06-22T02:15:36;15.17;;;12.13;;
38117;SDS011;23928;47.562;7.508;2023-06-22T02:18:02;16.70;;;13.53;;
38117;SDS011;23928;47.562;7.508;2023-06-22T02:20:28;17.97;;;13.17;;
38117;SDS011;23928;47.562;7.508;2023-06-22T02:22:53;17.70;;;12.30;;
38117;SDS011;23928;47.562;7.508;2023-06-22T02:25:19;18.57;;;12.77;;
38117;SDS011;23928;47.562;7.508;2023-06-22T02:27:45;15.03;;;12.63;;
38117;SDS011;23928;47.562;7.508;2023-06-22T02:30:11;19.13;;;13.37;;
38117;SDS011;23928;47.562;7.508;2023-06-22T02:32:39;16.43;;;12.73;;
38117;SDS011;23928;47.562;7.508;2023-06-22T02:35:08;17.00;;;11.40;;
38117;SDS011;23928;47.562;7.508;2023-06-22T02:37:35;17.10;;;12.13;;
38117;SDS011;23928;47.562;7.508;2023-06-22T02:40:06;15.13;;;12.40;;
38117;SDS011;23928;47.562;7.508;2023-06-22T02:42:33;16.50;;;12.20;;
38117;SDS011;23928;47.562;7.508;2023-06-22T02:45:03;17.73;;;12.00;;
38117;SDS011;23928;47.562;7.508;2023-06-22T02:47:28;14.10;;;11.53;;
38117;SDS011;23928;47.562;7.508;2023-06-22T02:49:54;13.73;;;11.00;;
38117;SDS011;23928;47.562;7.508;2023-06-22T02:52:20;12.20;;;10.10;;
38117;SDS011;23928;47.562;7.508;2023-06-22T02:54:45;12.33;;;10.13;;
38117;SDS011;23928;47.562;7.508;2023-06-22T02:57:11;16.20;;;11.27;;
38117;SDS011;23928;47.562;7.508;2023-06-22T02:59:39;22.43;;;14.97;;
38117;SDS011;23928;47.562;7.508;2023-06-22T03:02:06;25.07;;;15.97;;
38117;SDS011;23928;47.562;7.508;2023-06-22T03:04:32;15.87;;;12.60;;
38117;SDS011;23928;47.562;7.508;2023-06-22T03:06:59;15.97;;;11.97;;
38117;SDS011;23928;47.562;7.508;2023-06-22T03:09:26;16.67;;;10.30;;
38117;SDS011;23928;47.562;7.508;2023-06-22T03:11:55;17.40;;;11.80;;
38117;SDS011;23928;47.562;7.508;2023-06-22T03:14:20;15.40;;;11.57;;
38117;SDS011;23928;47.562;7.508;2023-06-22T03:16:46;20.40;;;12.30;;
38117;SDS011;23928;47.562;7.508;2023-06-22T03:19:12;16.17;;;11.20;;
38117;SDS011;23928;47.562;7.508;2023-06-22T03:21:38;15.63;;;11.33;;
38117;SDS011;23928;47.562;7.508;2023-06-22T03:24:04;12.47;;;9.23;;
38117;SDS011;23928;47.562;7.508;2023-06-22T03:26:31;16.27;;;11.60;;
38117;SDS011;23928;47.562;7.508;2023-06-22T03:28:56;16.23;;;9.73;;
38117;SDS011;23928;47.562;7.508;2023-06-22T03:31:22;21.17;;;12.13;;
38117;SDS011;23928;47.562;7.508;2023-06-22T03:33:48;18.50;;;13.37;;
38117;SDS011;23928;47.562;7.508;2023-06-22T03:36:15;17.77;;;12.47;;
38117;SDS011;23928;47.562;7.508;2023-06-22T03:38:44;17.57;;;12.83;;
38117;SDS011;23928;47.562;7.508;2023-06-22T03:41:12;17.43;;;10.40;;
38117;SDS011;23928;47.562;7.508;2023-06-22T03:43:38;18.60;;;11.43;;
38117;SDS011;23928;47.562;7.508;2023-06-22T03:46:04;15.20;;;10.90;;
38117;SDS011;23928;47.562;7.508;2023-06-22T03:48:29;18.00;;;13.03;;
38117;SDS011;23928;47.562;7.508;2023-06-22T03:50:55;16.57;;;11.83;;
38117;SDS011;23928;47.562;7.508;2023-06-22T03:53:21;18.50;;;13.10;;
38117;SDS011;23928;47.562;7.508;2023-06-22T03:55:52;14.83;;;12.43;;
38117;SDS011;23928;47.562;7.508;2023-06-22T03:58:19;19.47;;;12.73;;
38117;SDS011;23928;47.562;7.508;2023-06-22T04:00:45;16.20;;;11.70;;
38117;SDS011;23928;47.562;7.508;2023-06-22T04:03:16;22.10;;;13.23;;
38117;SDS011;23928;47.562;7.508;2023-06-22T04:05:43;16.83;;;11.83;;
38117;SDS011;23928;47.562;7.508;2023-06-22T04:08:09;19.33;;;12.83;;
38117;SDS011;23928;47.562;7.508;2023-06-22T04:10:35;17.80;;;13.23;;
38117;SDS011;23928;47.562;7.508;2023-06-22T04:13:01;74.80;;;16.40;;
38117;SDS011;23928;47.562;7.508;2023-06-22T04:15:27;13.27;;;11.33;;
38117;SDS011;23928;47.562;7.508;2023-06-22T04:17:53;20.70;;;13.67;;
38117;SDS011;23928;47.562;7.508;2023-06-22T04:20:19;16.53;;;12.03;;
38117;SDS011;23928;47.562;7.508;2023-06-22T04:22:45;16.10;;;12.33;;
38117;SDS011;23928;47.562;7.508;2023-06-22T04:25:11;13.43;;;11.33;;
38117;SDS011;23928;47.562;7.508;2023-06-22T04:27:36;15.13;;;11.00;;
38117;SDS011;23928;47.562;7.508;2023-06-22T04:30:05;18.10;;;12.67;;
38117;SDS011;23928;47.562;7.508;2023-06-22T04:32:32;11.67;;;10.47;;
38117;SDS011;23928;47.562;7.508;2023-06-22T04:34:58;17.43;;;12.27;;
38117;SDS011;23928;47.562;7.508;2023-06-22T04:37:27;18.80;;;12.77;;
38117;SDS011;23928;47.562;7.508;2023-06-22T04:39:53;15.67;;;11.70;;
38117;SDS011;23928;47.562;7.508;2023-06-22T04:42:19;18.60;;;13.93;;
38117;SDS011;23928;47.562;7.508;2023-06-22T04:44:45;21.07;;;13.83;;
38117;SDS011;23928;47.562;7.508;2023-06-22T04:47:10;16.87;;;13.03;;
38117;SDS011;23928;47.562;7.508;2023-06-22T04:49:36;18.17;;;12.47;;
38117;SDS011;23928;47.562;7.508;2023-06-22T04:52:05;16.60;;;12.27;;
38117;SDS011;23928;47.562;7.508;2023-06-22T04:54:32;15.30;;;11.83;;
38117;SDS011;23928;47.562;7.508;2023-06-22T04:57:07;15.73;;;10.70;;
38117;SDS011;23928;47.562;7.508;2023-06-22T04:59:36;18.20;;;12.87;;
38117;SDS011;23928;47.562;7.508;2023-06-22T05:02:04;21.40;;;13.13;;
38117;SDS011;23928;47.562;7.508;2023-06-22T05:04:31;17.87;;;13.27;;
38117;SDS011;23928;47.562;7.508;2023-06-22T05:06:57;18.47;;;13.17;;
38117;SDS011;23928;47.562;7.508;2023-06-22T05:09:23;17.37;;;13.70;;
38117;SDS011;23928;47.562;7.508;2023-06-22T05:11:50;17.70;;;15.27;;
38117;SDS011;23928;47.562;7.508;2023-06-22T05:14:16;16.90;;;12.97;;
38117;SDS011;23928;47.562;7.508;2023-06-22T05:16:42;16.43;;;12.97;;
38117;SDS011;23928;47.562;7.508;2023-06-22T05:19:08;18.27;;;13.83;;
38117;SDS011;23928;47.562;7.508;2023-06-22T05:21:34;14.10;;;11.63;;
38117;SDS011;23928;47.562;7.508;2023-06-22T05:24:00;18.20;;;12.27;;
38117;SDS011;23928;47.562;7.508;2023-06-22T05:26:27;12.53;;;11.23;;
38117;SDS011;23928;47.562;7.508;2023-06-22T05:28:55;22.03;;;13.07;;
38117;SDS011;23928;47.562;7.508;2023-06-22T05:31:21;14.33;;;11.40;;
38117;SDS011;23928;47.562;7.508;2023-06-22T05:33:47;15.77;;;12.23;;
38117;SDS011;23928;47.562;7.508;2023-06-22T05:36:14;15.50;;;10.47;;
38117;SDS011;23928;47.562;7.508;2023-06-22T05:38:40;16.73;;;10.63;;
38117;SDS011;23928;47.562;7.508;2023-06-22T05:41:06;16.70;;;11.53;;
38117;SDS011;23928;47.562;7.508;2023-06-22T05:43:32;18.40;;;11.70;;
38117;SDS011;23928;47.562;7.508;2023-06-22T05:45:59;18.93;;;12.07;;
38117;SDS011;23928;47.562;7.508;2023-06-22T05:48:25;16.33;;;11.03;;
38117;SDS011;23928;47.562;7.508;2023-06-22T05:50:51;14.73;;;10.53;;
38117;SDS011;23928;47.562;7.508;2023-06-22T05:53:16;12.60;;;9.30;;
38117;SDS011;23928;47.562;7.508;2023-06-22T05:55:42;19.43;;;14.13;;
38117;SDS011;23928;47.562;7.508;2023-06-22T05:58:08;22.17;;;15.30;;
38117;SDS011;23928;47.562;7.508;2023-06-22T06:00:34;20.73;;;15.17;;
38117;SDS011;23928;47.562;7.508;2023-06-22T06:03:00;29.40;;;17.40;;
38117;SDS011;23928;47.562;7.508;2023-06-22T06:05:31;24.83;;;15.93;;
38117;SDS011;23928;47.562;7.508;2023-06-22T06:07:58;28.17;;;17.43;;
38117;SDS011;23928;47.562;7.508;2023-06-22T06:10:27;28.23;;;18.03;;
38117;SDS011;23928;47.562;7.508;2023-06-22T06:12:54;32.17;;;17.90;;
38117;SDS011;23928;47.562;7.508;2023-06-22T06:15:20;29.33;;;18.73;;
38117;SDS011;23928;47.562;7.508;2023-06-22T06:17:52;26.93;;;17.33;;
38117;SDS011;23928;47.562;7.508;2023-06-22T06:20:19;26.27;;;17.10;;
38117;SDS011;23928;47.562;7.508;2023-06-22T06:22:46;24.30;;;18.00;;
38117;SDS011;23928;47.562;7.508;2023-06-22T06:25:12;28.97;;;17.30;;
38117;SDS011;23928;47.562;7.508;2023-06-22T06:27:44;23.67;;;17.80;;
38117;SDS011;23928;47.562;7.508;2023-06-22T06:30:11;22.43;;;16.50;;
38117;SDS011;23928;47.562;7.508;2023-06-22T06:32:38;20.80;;;15.53;;
38117;SDS011;23928;47.562;7.508;2023-06-22T06:35:07;19.20;;;15.33;;
38117;SDS011;23928;47.562;7.508;2023-06-22T06:37:37;20.40;;;14.40;;
38117;SDS011;23928;47.562;7.508;2023-06-22T06:40:07;22.23;;;15.03;;
38117;SDS011;23928;47.562;7.508;2023-06-22T06:42:35;23.30;;;14.70;;
38117;SDS011;23928;47.562;7.508;2023-06-22T06:45:04;16.63;;;13.03;;
38117;SDS011;23928;47.562;7.508;2023-06-22T06:47:30;22.93;;;14.20;;
38117;SDS011;23928;47.562;7.508;2023-06-22T06:49:55;19.53;;;14.67;;
38117;SDS011;23928;47.562;7.508;2023-06-22T06:52:21;23.80;;;15.30;;
38117;SDS011;23928;47.562;7.508;2023-06-22T06:54:47;17.70;;;12.80;;
38117;SDS011;23928;47.562;7.508;2023-06-22T06:57:12;20.50;;;13.67;;
38117;SDS011;23928;47.562;7.508;2023-06-22T06:59:38;22.57;;;13.63;;
38117;SDS011;23928;47.562;7.508;2023-06-22T07:02:04;17.80;;;12.73;;
38117;SDS011;23928;47.562;7.508;2023-06-22T07:04:30;19.47;;;13.50;;
38117;SDS011;23928;47.562;7.508;2023-06-22T07:06:55;20.10;;;13.90;;
38117;SDS011;23928;47.562;7.508;2023-06-22T07:09:21;17.03;;;12.83;;
38117;SDS011;23928;47.562;7.508;2023-06-22T07:11:46;18.70;;;14.37;;
38117;SDS011;23928;47.562;7.508;2023-06-22T07:14:12;19.43;;;13.83;;
38117;SDS011;23928;47.562;7.508;2023-06-22T07:16:38;20.20;;;15.47;;
38117;SDS011;23928;47.562;7.508;2023-06-22T07:19:03;23.30;;;15.50;;
38117;SDS011;23928;47.562;7.508;2023-06-22T07:21:29;24.37;;;15.33;;
38117;SDS011;23928;47.562;7.508;2023-06-22T07:23:54;18.43;;;13.60;;
38117;SDS011;23928;47.562;7.508;2023-06-22T07:26:21;20.27;;;15.20;;
38117;SDS011;23928;47.562;7.508;2023-06-22T07:28:47;20.03;;;14.57;;
38117;SDS011;23928;47.562;7.508;2023-06-22T07:31:12;21.63;;;15.30;;
38117;SDS011;23928;47.562;7.508;2023-06-22T07:33:38;20.13;;;15.63;;
38117;SDS011;23928;47.562;7.508;2023-06-22T07:36:03;21.37;;;15.63;;
38117;SDS011;23928;47.562;7.508;2023-06-22T07:38:32;17.53;;;13.90;;
38117;SDS011;23928;47.562;7.508;2023-06-22T07:40:59;20.40;;;12.23;;
38117;SDS011;23928;47.562;7.508;2023-06-22T07:43:24;17.60;;;14.13;;
38117;SDS011;23928;47.562;7.508;2023-06-22T07:45:50;20.60;;;13.03;;
38117;SDS011;23928;47.562;7.508;2023-06-22T07:48:22;15.30;;;12.63;;
38117;SDS011;23928;47.562;7.508;2023-06-22T07:50:47;19.23;;;13.83;;
38117;SDS011;23928;47.562;7.508;2023-06-22T07:53:13;22.87;;;15.90;;
38117;SDS011;23928;47.562;7.508;2023-06-22T07:55:39;21.30;;;16.77;;
38117;SDS011;23928;47.562;7.508;2023-06-22T07:58:05;24.30;;;17.03;;
38117;SDS011;23928;47.562;7.508;2023-06-22T08:00:30;26.70;;;16.77;;
38117;SDS011;23928;47.562;7.508;2023-06-22T08:02:57;25.40;;;15.97;;
38117;SDS011;23928;47.562;7.508;2023-06-22T08:05:23;22.40;;;15.17;;
38117;SDS011;23928;47.562;7.508;2023-06-22T08:07:49;20.77;;;15.00;;
38117;SDS011;23928;47.562;7.508;2023-06-22T08:10:14;24.53;;;15.27;;
38117;SDS011;23928;47.562;7.508;2023-06-22T08:12:40;22.73;;;15.20;;
38117;SDS011;23928;47.562;7.508;2023-06-22T08:15:06;23.93;;;14.23;;
38117;SDS011;23928;47.562;7.508;2023-06-22T08:17:32;25.43;;;15.93;;
38117;SDS011;23928;47.562;7.508;2023-06-22T08:19:58;19.93;;;14.90;;
38117;SDS011;23928;47.562;7.508;2023-06-22T08:22:24;19.47;;;14.07;;
38117;SDS011;23928;47.562;7.508;2023-06-22T08:24:50;18.90;;;13.03;;
38117;SDS011;23928;47.562;7.508;2023-06-22T08:27:15;16.63;;;12.33;;
38117;SDS011;23928;47.562;7.508;2023-06-22T08:29:43;17.03;;;11.37;;
38117;SDS011;23928;47.562;7.508;2023-06-22T08:32:10;21.20;;;10.10;;
38117;SDS011;23928;47.562;7.508;2023-06-22T08:34:36;14.70;;;10.20;;
38117;SDS011;23928;47.562;7.508;2023-06-22T08:37:02;15.53;;;10.13;;
38117;SDS011;23928;47.562;7.508;2023-06-22T08:39:31;15.27;;;10.27;;
38117;SDS011;23928;47.562;7.508;2023-06-22T08:41:57;12.57;;;9.30;;
38117;SDS011;23928;47.562;7.508;2023-06-22T08:44:22;18.50;;;9.03;;
38117;SDS011;23928;47.562;7.508;2023-06-22T08:46:48;13.47;;;9.07;;
38117;SDS011;23928;47.562;7.508;2023-06-22T08:49:13;15.47;;;8.90;;
38117;SDS011;23928;47.562;7.508;2023-06-22T08:51:39;14.97;;;8.70;;
38117;SDS011;23928;47.562;7.508;2023-06-22T08:54:05;13.33;;;8.30;;
38117;SDS011;23928;47.562;7.508;2023-06-22T08:56:31;16.23;;;8.70;;
38117;SDS011;23928;47.562;7.508;2023-06-22T08:58:56;12.93;;;8.07;;
38117;SDS011;23928;47.562;7.508;2023-06-22T09:01:22;14.50;;;8.50;;
38117;SDS011;23928;47.562;7.508;2023-06-22T09:03:47;12.77;;;8.37;;
38117;SDS011;23928;47.562;7.508;2023-06-22T09:06:20;11.93;;;8.30;;
38117;SDS011;23928;47.562;7.508;2023-06-22T09:08:46;16.80;;;8.90;;
38117;SDS011;23928;47.562;7.508;2023-06-22T09:11:12;11.77;;;7.90;;
38117;SDS011;23928;47.562;7.508;2023-06-22T09:13:38;9.30;;;7.00;;
38117;SDS011;23928;47.562;7.508;2023-06-22T09:16:04;14.93;;;7.80;;
38117;SDS011;23928;47.562;7.508;2023-06-22T09:18:29;15.93;;;8.87;;
38117;SDS011;23928;47.562;7.508;2023-06-22T09:20:55;13.97;;;8.73;;
38117;SDS011;23928;47.562;7.508;2023-06-22T09:23:21;11.83;;;7.60;;
38117;SDS011;23928;47.562;7.508;2023-06-22T09:25:46;11.97;;;8.07;;
38117;SDS011;23928;47.562;7.508;2023-06-22T09:28:13;11.33;;;7.83;;
38117;SDS011;23928;47.562;7.508;2023-06-22T09:30:39;11.87;;;8.00;;
38117;SDS011;23928;47.562;7.508;2023-06-22T09:33:04;9.00;;;6.73;;
38117;SDS011;23928;47.562;7.508;2023-06-22T09:35:30;11.77;;;6.90;;
38117;SDS011;23928;47.562;7.508;2023-06-22T09:37:55;15.40;;;8.50;;
38117;SDS011;23928;47.562;7.508;2023-06-22T09:40:21;12.47;;;8.00;;
38117;SDS011;23928;47.562;7.508;2023-06-22T09:42:47;11.80;;;7.43;;
38117;SDS011;23928;47.562;7.508;2023-06-22T09:45:12;12.87;;;7.67;;
38117;SDS011;23928;47.562;7.508;2023-06-22T09:47:38;12.73;;;7.97;;
38117;SDS011;23928;47.562;7.508;2023-06-22T09:50:04;14.03;;;7.63;;
38117;SDS011;23928;47.562;7.508;2023-06-22T09:52:31;10.33;;;7.23;;
38117;SDS011;23928;47.562;7.508;2023-06-22T09:54:57;11.67;;;6.57;;
38117;SDS011;23928;47.562;7.508;2023-06-22T09:57:22;10.63;;;6.27;;
38117;SDS011;23928;47.562;7.508;2023-06-22T09:59:48;11.70;;;7.63;;
38117;SDS011;23928;47.562;7.508;2023-06-22T10:02:13;12.27;;;7.10;;
38117;SDS011;23928;47.562;7.508;2023-06-22T10:04:39;10.03;;;7.23;;
38117;SDS011;23928;47.562;7.508;2023-06-22T10:07:05;11.70;;;7.40;;
38117;SDS011;23928;47.562;7.508;2023-06-22T10:09:31;12.83;;;7.47;;
38117;SDS011;23928;47.562;7.508;2023-06-22T10:11:57;11.17;;;7.03;;
38117;SDS011;23928;47.562;7.508;2023-06-22T10:14:22;12.57;;;8.10;;
38117;SDS011;23928;47.562;7.508;2023-06-22T10:16:49;12.33;;;8.63;;
38117;SDS011;23928;47.562;7.508;2023-06-22T10:19:16;11.73;;;8.97;;
38117;SDS011;23928;47.562;7.508;2023-06-22T10:21:41;14.07;;;7.87;;
38117;SDS011;23928;47.562;7.508;2023-06-22T10:24:07;15.43;;;9.63;;
38117;SDS011;23928;47.562;7.508;2023-06-22T10:26:33;16.77;;;9.43;;
38117;SDS011;23928;47.562;7.508;2023-06-22T10:29:00;15.50;;;9.80;;
38117;SDS011;23928;47.562;7.508;2023-06-22T10:31:26;15.73;;;9.23;;
38117;SDS011;23928;47.562;7.508;2023-06-22T10:33:53;13.67;;;9.20;;
38117;SDS011;23928;47.562;7.508;2023-06-22T10:36:19;13.60;;;8.00;;
38117;SDS011;23928;47.562;7.508;2023-06-22T10:38:44;12.23;;;8.47;;
38117;SDS011;23928;47.562;7.508;2023-06-22T10:41:11;12.07;;;7.73;;
38117;SDS011;23928;47.562;7.508;2023-06-22T10:43:37;9.80;;;7.77;;
38117;SDS011;23928;47.562;7.508;2023-06-22T10:46:03;12.70;;;8.17;;
38117;SDS011;23928;47.562;7.508;2023-06-22T10:48:28;13.43;;;8.00;;
38117;SDS011;23928;47.562;7.508;2023-06-22T10:50:54;9.20;;;7.23;;
38117;SDS011;23928;47.562;7.508;2023-06-22T10:53:19;13.10;;;8.37;;
38117;SDS011;23928;47.562;7.508;2023-06-22T10:55:45;13.43;;;8.23;;
38117;SDS011;23928;47.562;7.508;2023-06-22T10:58:11;11.77;;;7.73;;
38117;SDS011;23928;47.562;7.508;2023-06-22T11:00:37;14.27;;;8.73;;
38117;SDS011;23928;47.562;7.508;2023-06-22T11:03:02;16.00;;;8.67;;
38117;SDS011;23928;47.562;7.508;2023-06-22T11:05:28;15.50;;;9.03;;
38117;SDS011;23928;47.562;7.508;2023-06-22T11:07:53;11.53;;;7.67;;
38117;SDS011;23928;47.562;7.508;2023-06-22T11:10:19;11.63;;;8.27;;
38117;SDS011;23928;47.562;7.508;2023-06-22T11:12:45;14.03;;;8.37;;
38117;SDS011;23928;47.562;7.508;2023-06-22T11:15:10;12.00;;;7.87;;
38117;SDS011;23928;47.562;7.508;2023-06-22T11:17:36;15.83;;;10.27;;
38117;SDS011;23928;47.562;7.508;2023-06-22T11:20:02;13.23;;;10.13;;
38117;SDS011;23928;47.562;7.508;2023-06-22T11:22:38;12.37;;;8.80;;
38117;SDS011;23928;47.562;7.508;2023-06-22T11:25:04;12.23;;;8.57;;
38117;SDS011;23928;47.562;7.508;2023-06-22T11:27:31;17.23;;;8.83;;
38117;SDS011;23928;47.562;7.508;2023-06-22T11:29:57;12.53;;;8.40;;
38117;SDS011;23928;47.562;7.508;2023-06-22T11:32:22;11.30;;;8.63;;
38117;SDS011;23928;47.562;7.508;2023-06-22T11:34:48;15.70;;;9.20;;
38117;SDS011;23928;47.562;7.508;2023-06-22T11:37:14;15.33;;;8.50;;
38117;SDS011;23928;47.562;7.508;2023-06-22T11:39:40;13.90;;;9.57;;
38117;SDS011;23928;47.562;7.508;2023-06-22T11:42:06;13.17;;;9.50;;
38117;SDS011;23928;47.562;7.508;2023-06-22T11:44:32;12.60;;;8.80;;
38117;SDS011;23928;47.562;7.508;2023-06-22T11:46:57;15.33;;;9.77;;
38117;SDS011;23928;47.562;7.508;2023-06-22T11:49:25;17.63;;;9.73;;
38117;SDS011;23928;47.562;7.508;2023-06-22T11:51:51;17.60;;;9.60;;
38117;SDS011;23928;47.562;7.508;2023-06-22T11:54:17;13.20;;;8.37;;
38117;SDS011;23928;47.562;7.508;2023-06-22T11:56:43;11.47;;;9.40;;
38117;SDS011;23928;47.562;7.508;2023-06-22T11:59:08;12.20;;;9.43;;
38117;SDS011;23928;47.562;7.508;2023-06-22T12:01:34;13.17;;;8.97;;
38117;SDS011;23928;47.562;7.508;2023-06-22T12:03:59;15.57;;;8.77;;
38117;SDS011;23928;47.562;7.508;2023-06-22T12:06:25;12.60;;;8.43;;
38117;SDS011;23928;47.562;7.508;2023-06-22T12:08:51;11.40;;;8.30;;
38117;SDS011;23928;47.562;7.508;2023-06-22T12:11:16;10.37;;;7.60;;
38117;SDS011;23928;47.562;7.508;2023-06-22T12:13:42;13.87;;;7.93;;
38117;SDS011;23928;47.562;7.508;2023-06-22T12:16:07;12.00;;;7.83;;
38117;SDS011;23928;47.562;7.508;2023-06-22T12:18:33;14.57;;;7.47;;
38117;SDS011;23928;47.562;7.508;2023-06-22T12:20:58;10.67;;;7.53;;
38117;SDS011;23928;47.562;7.508;2023-06-22T12:23:24;12.27;;;8.13;;
38117;SDS011;23928;47.562;7.508;2023-06-22T12:25:50;13.03;;;6.97;;
38117;SDS011;23928;47.562;7.508;2023-06-22T12:28:15;11.43;;;7.07;;
38117;SDS011;23928;47.562;7.508;2023-06-22T12:30:41;10.23;;;6.50;;
38117;SDS011;23928;47.562;7.508;2023-06-22T12:33:06;13.27;;;7.63;;
38117;SDS011;23928;47.562;7.508;2023-06-22T12:35:32;10.13;;;6.23;;
38117;SDS011;23928;47.562;7.508;2023-06-22T12:37:59;16.50;;;7.77;;
38117;SDS011;23928;47.562;7.508;2023-06-22T12:40:24;10.77;;;7.20;;
38117;SDS011;23928;47.562;7.508;2023-06-22T12:42:50;13.57;;;7.27;;
38117;SDS011;23928;47.562;7.508;2023-06-22T12:45:16;11.77;;;6.40;;
38117;SDS011;23928;47.562;7.508;2023-06-22T12:47:41;13.30;;;7.10;;
38117;SDS011;23928;47.562;7.508;2023-06-22T12:50:08;12.27;;;7.07;;
38117;SDS011;23928;47.562;7.508;2023-06-22T12:52:36;15.17;;;7.83;;
38117;SDS011;23928;47.562;7.508;2023-06-22T12:55:04;11.90;;;7.03;;
38117;SDS011;23928;47.562;7.508;2023-06-22T12:57:30;13.50;;;7.30;;
38117;SDS011;23928;47.562;7.508;2023-06-22T12:59:55;12.83;;;7.40;;
38117;SDS011;23928;47.562;7.508;2023-06-22T13:02:22;11.77;;;6.83;;
38117;SDS011;23928;47.562;7.508;2023-06-22T13:04:47;12.60;;;6.90;;
38117;SDS011;23928;47.562;7.508;2023-06-22T13:07:13;8.43;;;6.10;;
38117;SDS011;23928;47.562;7.508;2023-06-22T13:09:38;10.33;;;6.20;;
38117;SDS011;23928;47.562;7.508;2023-06-22T13:12:04;11.40;;;6.57;;
38117;SDS011;23928;47.562;7.508;2023-06-22T13:14:30;13.03;;;7.30;;
38117;SDS011;23928;47.562;7.508;2023-06-22T13:16:55;9.03;;;6.43;;
38117;SDS011;23928;47.562;7.508;2023-06-22T13:19:21;11.63;;;6.70;;
38117;SDS011;23928;47.562;7.508;2023-06-22T13:21:46;10.53;;;6.27;;
38117;SDS011;23928;47.562;7.508;2023-06-22T13:24:12;14.63;;;7.13;;
38117;SDS011;23928;47.562;7.508;2023-06-22T13:26:38;11.73;;;6.40;;
38117;SDS011;23928;47.562;7.508;2023-06-22T13:29:04;13.77;;;7.03;;
38117;SDS011;23928;47.562;7.508;2023-06-22T13:31:29;15.20;;;6.97;;
38117;SDS011;23928;47.562;7.508;2023-06-22T13:33:55;12.33;;;6.93;;
38117;SDS011;23928;47.562;7.508;2023-06-22T13:36:20;11.87;;;6.00;;
38117;SDS011;23928;47.562;7.508;2023-06-22T13:38:48;13.83;;;6.77;;
38117;SDS011;23928;47.562;7.508;2023-06-22T13:41:13;12.03;;;6.47;;
38117;SDS011;23928;47.562;7.508;2023-06-22T13:43:39;10.87;;;6.47;;
38117;SDS011;23928;47.562;7.508;2023-06-22T13:46:05;10.60;;;6.87;;
38117;SDS011;23928;47.562;7.508;2023-06-22T13:48:30;8.80;;;6.83;;
38117;SDS011;23928;47.562;7.508;2023-06-22T13:50:56;12.83;;;6.97;;
38117;SDS011;23928;47.562;7.508;2023-06-22T13:53:24;9.53;;;7.07;;
38117;SDS011;23928;47.562;7.508;2023-06-22T13:55:50;12.57;;;6.53;;
38117;SDS011;23928;47.562;7.508;2023-06-22T13:58:16;16.23;;;6.93;;
38117;SDS011;23928;47.562;7.508;2023-06-22T14:00:41;11.90;;;7.33;;
38117;SDS011;23928;47.562;7.508;2023-06-22T14:03:07;11.17;;;6.67;;
38117;SDS011;23928;47.562;7.508;2023-06-22T14:05:32;11.60;;;6.80;;
38117;SDS011;23928;47.562;7.508;2023-06-22T14:07:58;11.83;;;6.53;;
38117;SDS011;23928;47.562;7.508;2023-06-22T14:10:23;12.73;;;7.27;;
38117;SDS011;23928;47.562;7.508;2023-06-22T14:12:49;15.63;;;7.33;;
38117;SDS011;23928;47.562;7.508;2023-06-22T14:15:14;10.77;;;7.10;;
38117;SDS011;23928;47.562;7.508;2023-06-22T14:17:40;15.23;;;7.27;;
38117;SDS011;23928;47.562;7.508;2023-06-22T14:20:06;12.83;;;6.80;;
38117;SDS011;23928;47.562;7.508;2023-06-22T14:22:33;10.40;;;6.80;;
38117;SDS011;23928;47.562;7.508;2023-06-22T14:25:00;7.20;;;5.77;;
38117;SDS011;23928;47.562;7.508;2023-06-22T14:27:26;10.93;;;6.20;;
38117;SDS011;23928;47.562;7.508;2023-06-22T14:29:52;12.73;;;6.67;;
38117;SDS011;23928;47.562;7.508;2023-06-22T14:32:18;12.70;;;6.73;;